createdAt,value
2022-12-19T00:00:32.669Z,35.97
2022-12-19T00:03:01.009Z,34.13
2022-12-19T00:05:29.301Z,33.50
2022-12-19T00:07:57.490Z,34.03
2022-12-19T00:10:27.209Z,30.83
2022-12-19T00:12:55.436Z,29.17
2022-12-19T00:15:23.674Z,41.50
2022-12-19T00:17:53.264Z,31.43
2022-12-19T00:20:21.500Z,33.60
2022-12-19T00:22:49.860Z,34.27
2022-12-19T00:25:19.426Z,31.43
2022-12-19T00:27:48.730Z,31.03
2022-12-19T00:30:17.027Z,30.10
2022-12-19T00:32:45.219Z,35.17
2022-12-19T00:35:15.184Z,34.97
2022-12-19T00:37:49.745Z,32.67
2022-12-19T00:40:19.091Z,31.93
2022-12-19T00:42:53.354Z,31.03
2022-12-19T00:45:22.505Z,26.07
2022-12-19T00:47:50.767Z,35.30
2022-12-19T00:50:23.247Z,28.23
2022-12-19T00:52:51.559Z,28.43
2022-12-19T00:55:19.775Z,29.40
2022-12-19T00:57:48.480Z,30.07
2022-12-19T01:00:18.403Z,31.17
2022-12-19T01:02:47.007Z,33.77
2022-12-19T01:05:15.479Z,24.40
2022-12-19T01:07:45.208Z,30.97
2022-12-19T01:10:13.488Z,29.73
2022-12-19T01:12:46.340Z,31.80
2022-12-19T01:15:17.418Z,29.07
2022-12-19T01:17:45.773Z,32.22
2022-12-19T01:20:15.382Z,33.90
2022-12-19T01:22:45.481Z,20.47
2022-12-19T01:25:15.931Z,23.37
2022-12-19T01:27:44.139Z,22.20
2022-12-19T01:30:13.888Z,19.37
2022-12-19T01:32:44.008Z,23.20
2022-12-19T01:35:21.144Z,19.43
2022-12-19T01:37:51.843Z,18.33
2022-12-19T01:40:25.056Z,16.87
2022-12-19T01:42:53.308Z,16.50
2022-12-19T01:45:34.486Z,17.37
2022-12-19T01:51:00.112Z,22.33
2022-12-19T01:53:36.654Z,20.20
2022-12-19T01:56:12.317Z,24.43
2022-12-19T01:58:46.606Z,25.05
2022-12-19T02:01:16.552Z,25.80
2022-12-19T02:03:46.549Z,25.87
2022-12-19T02:06:17.077Z,22.07
2022-12-19T02:08:49.565Z,14.40
2022-12-19T02:11:18.178Z,17.17
2022-12-19T02:13:46.904Z,22.40
2022-12-19T02:16:26.359Z,22.77
2022-12-19T02:19:05.398Z,28.43
2022-12-19T02:21:45.570Z,22.10
2022-12-19T02:24:46.254Z,20.87
2022-12-19T02:27:40.085Z,30.53
2022-12-19T02:30:14.536Z,26.00
2022-12-19T02:32:53.333Z,22.03
2022-12-19T02:35:30.598Z,25.47
2022-12-19T02:38:10.464Z,23.20
2022-12-19T02:40:46.877Z,29.93
2022-12-19T02:43:21.914Z,25.97
2022-12-19T02:45:51.908Z,13.50
2022-12-19T02:48:22.158Z,34.97
2022-12-19T02:50:50.806Z,25.10
2022-12-19T02:53:23.691Z,28.87
2022-12-19T02:56:05.648Z,29.63
2022-12-19T02:58:52.319Z,32.47
2022-12-19T03:04:14.880Z,28.87
2022-12-19T03:06:50.085Z,28.37
2022-12-19T03:09:24.396Z,31.63
2022-12-19T03:11:58.336Z,24.90
2022-12-19T03:14:27.938Z,26.50
2022-12-19T03:16:56.411Z,29.27
2022-12-19T03:19:27.712Z,29.13
2022-12-19T03:21:56.121Z,29.85
2022-12-19T03:24:24.591Z,31.80
2022-12-19T03:27:00.180Z,25.23
2022-12-19T03:29:32.984Z,19.40
2022-12-19T03:32:04.129Z,27.30
2022-12-19T03:34:40.071Z,22.60
2022-12-19T03:37:13.743Z,28.67
2022-12-19T03:39:44.196Z,18.93
2022-12-19T03:42:37.357Z,11.10
2022-12-19T03:45:07.796Z,30.73
2022-12-19T03:47:39.500Z,33.77
2022-12-19T03:52:44.778Z,26.60
2022-12-19T03:55:19.026Z,31.37
2022-12-19T03:57:53.385Z,29.33
2022-12-19T04:00:23.624Z,28.80
2022-12-19T04:02:54.890Z,34.30
2022-12-19T04:05:27.090Z,27.85
2022-12-19T04:07:57.796Z,31.07
2022-12-19T04:10:28.597Z,28.17
2022-12-19T04:13:01.463Z,33.22
2022-12-19T04:15:36.068Z,37.10
2022-12-19T04:18:08.030Z,35.10
2022-12-19T04:20:40.108Z,32.10
2022-12-19T04:23:15.115Z,31.97
2022-12-19T04:25:47.323Z,32.53
2022-12-19T04:28:20.619Z,30.63
2022-12-19T04:30:50.909Z,37.53
2022-12-19T04:33:19.175Z,23.27
2022-12-19T04:35:48.966Z,37.47
2022-12-19T04:38:17.297Z,33.43
2022-12-19T04:40:45.624Z,30.80
2022-12-19T04:43:13.866Z,34.30
2022-12-19T04:45:43.014Z,31.43
2022-12-19T04:48:11.543Z,31.00
2022-12-19T04:50:39.754Z,25.90
2022-12-19T04:53:09.388Z,36.63
2022-12-19T04:55:37.917Z,32.70
2022-12-19T04:58:06.579Z,28.33
2022-12-19T05:00:36.165Z,31.10
2022-12-19T05:03:04.603Z,36.37
2022-12-19T05:05:33.130Z,32.57
2022-12-19T05:08:01.896Z,33.50
2022-12-19T05:10:31.548Z,32.37
2022-12-19T05:12:59.892Z,28.50
2022-12-19T05:15:28.231Z,31.73
2022-12-19T05:17:56.570Z,34.67
2022-12-19T05:20:25.029Z,35.30
2022-12-19T05:22:53.461Z,30.17
2022-12-19T05:25:21.817Z,37.27
2022-12-19T05:27:51.535Z,30.77
2022-12-19T05:30:20.212Z,34.70
2022-12-19T05:32:48.523Z,29.27
2022-12-19T05:35:16.850Z,30.93
2022-12-19T05:37:45.152Z,36.40
2022-12-19T05:40:14.178Z,31.47
2022-12-19T05:42:42.484Z,32.63
2022-12-19T05:45:12.581Z,38.90
2022-12-19T05:47:40.846Z,30.97
2022-12-19T05:50:10.192Z,30.63
2022-12-19T05:52:38.428Z,33.97
2022-12-19T05:55:07.899Z,33.80
2022-12-19T05:57:36.631Z,29.37
2022-12-19T06:00:06.009Z,27.00
2022-12-19T06:02:35.856Z,29.93
2022-12-19T06:05:04.273Z,25.27
2022-12-19T06:07:32.526Z,23.60
2022-12-19T06:10:00.845Z,15.67
2022-12-19T06:12:29.134Z,13.83
2022-12-19T06:14:57.411Z,34.23
2022-12-19T06:17:25.801Z,32.77
2022-12-19T06:19:55.878Z,22.57
2022-12-19T06:22:24.249Z,26.33
2022-12-19T06:24:52.868Z,30.20
2022-12-19T06:27:21.291Z,14.60
2022-12-19T06:29:49.882Z,25.23
2022-12-19T06:32:18.237Z,23.90
2022-12-19T06:35:03.823Z,24.80
2022-12-19T06:37:34.696Z,19.93
2022-12-19T06:40:05.648Z,18.73
2022-12-19T06:42:32.887Z,26.53
2022-12-19T06:45:01.130Z,26.60
2022-12-19T06:47:29.353Z,23.50
2022-12-19T06:49:57.631Z,26.93
2022-12-19T06:52:25.919Z,25.53
2022-12-19T06:54:55.715Z,24.13
2022-12-19T06:57:24.282Z,29.47
2022-12-19T06:59:52.669Z,31.73
2022-12-19T07:02:27.902Z,25.10
2022-12-19T07:05:01.008Z,23.23
2022-12-19T07:07:30.215Z,27.43
2022-12-19T07:10:00.152Z,24.97
2022-12-19T07:12:28.804Z,22.93
2022-12-19T07:14:57.164Z,18.33
2022-12-19T07:17:27.091Z,20.80
2022-12-19T07:19:57.287Z,21.83
2022-12-19T07:22:28.047Z,20.13
2022-12-19T07:24:57.590Z,27.27
2022-12-19T07:27:35.397Z,24.77
2022-12-19T07:30:05.170Z,24.40
2022-12-19T07:32:34.046Z,27.50
2022-12-19T07:35:02.847Z,24.10
2022-12-19T07:37:31.669Z,23.57
2022-12-19T07:40:01.078Z,14.90
2022-12-19T07:42:32.746Z,27.87
2022-12-19T07:45:02.803Z,32.97
2022-12-19T07:47:31.145Z,24.30
2022-12-19T07:49:59.612Z,26.57
2022-12-19T07:52:28.031Z,21.43
2022-12-19T07:54:56.551Z,21.07
2022-12-19T07:57:25.226Z,19.53
2022-12-19T07:59:55.077Z,16.00
2022-12-19T08:02:23.473Z,18.67
2022-12-19T08:04:52.014Z,10.53
2022-12-19T08:07:20.303Z,6.83
2022-12-19T08:09:48.773Z,7.10
2022-12-19T08:12:17.088Z,4.83
2022-12-19T08:14:45.483Z,3.70
2022-12-19T08:17:21.161Z,4.63
2022-12-19T08:19:49.826Z,2.27
2022-12-19T08:22:18.214Z,6.23
2022-12-19T08:24:46.657Z,7.93
2022-12-19T08:27:16.457Z,7.87
2022-12-19T08:29:44.761Z,8.77
2022-12-19T08:32:18.683Z,11.27
2022-12-19T08:34:50.972Z,6.27
2022-12-19T08:37:19.391Z,7.77
2022-12-19T08:39:47.794Z,28.10
2022-12-19T08:42:16.042Z,37.23
2022-12-19T08:44:44.273Z,23.05
2022-12-19T08:47:12.517Z,19.95
2022-12-19T08:49:40.710Z,16.05
2022-12-19T08:52:10.612Z,17.02
2022-12-19T08:54:38.924Z,21.88
2022-12-19T08:57:07.251Z,20.85
2022-12-19T08:59:35.604Z,19.83
2022-12-19T09:02:06.476Z,20.35
2022-12-19T09:05:59.849Z,20.95
2022-12-19T09:07:24.467Z,22.35
2022-12-19T09:09:52.924Z,20.10
2022-12-19T09:12:21.853Z,23.05
2022-12-19T09:14:50.494Z,25.23
2022-12-19T09:17:19.107Z,29.73
2022-12-19T09:19:48.250Z,25.98
2022-12-19T09:22:17.503Z,25.90
2022-12-19T09:24:47.211Z,24.80
2022-12-19T09:27:15.491Z,27.42
2022-12-19T09:29:44.278Z,26.30
2022-12-19T09:32:12.845Z,25.08
2022-12-19T09:34:41.018Z,22.38
2022-12-19T09:37:15.976Z,26.20
2022-12-19T09:39:47.672Z,28.50
2022-12-19T09:42:29.284Z,27.40
2022-12-19T09:45:14.473Z,28.33
2022-12-19T09:47:50.038Z,26.63
2022-12-19T09:50:30.723Z,27.23
2022-12-19T09:53:03.933Z,30.75
2022-12-19T09:55:36.858Z,33.25
2022-12-19T09:58:12.718Z,28.63
2022-12-19T10:00:44.845Z,28.05
2022-12-19T10:03:23.216Z,26.02
2022-12-19T10:06:17.833Z,27.58
2022-12-19T10:08:56.959Z,22.45
2022-12-19T10:12:42.462Z,21.45
2022-12-19T10:14:58.935Z,20.88
2022-12-19T10:17:33.545Z,24.55
2022-12-19T10:20:16.300Z,27.30
2022-12-19T10:22:55.724Z,25.77
2022-12-19T10:25:38.109Z,30.88
2022-12-19T10:28:21.123Z,22.15
2022-12-19T10:31:02.652Z,38.72
2022-12-19T10:33:44.079Z,27.20
2022-12-19T10:36:13.311Z,22.80
2022-12-19T10:38:51.297Z,20.30
2022-12-19T10:41:23.244Z,20.05
2022-12-19T10:44:02.450Z,23.02
2022-12-19T10:46:42.540Z,23.92
2022-12-19T10:49:16.979Z,22.25
2022-12-19T10:51:55.065Z,23.00
2022-12-19T10:54:33.047Z,23.92
2022-12-19T10:57:19.949Z,22.02
2022-12-19T10:59:59.040Z,28.88
2022-12-19T11:02:43.272Z,33.00
2022-12-19T11:05:25.938Z,33.72
2022-12-19T11:08:11.230Z,35.20
2022-12-19T11:12:46.930Z,35.42
2022-12-19T11:19:58.153Z,37.55
2022-12-19T11:21:56.214Z,35.25
2022-12-19T11:29:19.252Z,34.28
2022-12-19T11:30:26.147Z,37.05
2022-12-19T11:30:59.413Z,38.50
2022-12-19T11:34:02.967Z,33.42
2022-12-19T11:36:34.055Z,34.15
2022-12-19T11:39:03.762Z,32.75
2022-12-19T11:41:37.315Z,36.83
2022-12-19T11:44:13.858Z,33.67
2022-12-19T11:46:48.279Z,37.83
2022-12-19T11:49:27.198Z,37.72
2022-12-19T11:52:02.579Z,35.72
2022-12-19T11:54:35.841Z,37.28
2022-12-19T11:57:04.265Z,39.08
2022-12-19T11:59:33.845Z,35.58
2022-12-19T12:02:31.667Z,37.20
2022-12-19T12:05:22.817Z,37.80
2022-12-19T12:08:49.414Z,36.63
2022-12-19T12:13:58.097Z,33.28
2022-12-19T12:26:30.579Z,32.05
2022-12-19T12:30:53.640Z,26.45
2022-12-19T12:31:14.253Z,35.25
2022-12-19T12:31:49.076Z,31.92
2022-12-19T12:32:03.193Z,24.65
2022-12-19T12:32:05.067Z,31.45
2022-12-19T12:35:12.681Z,19.55
2022-12-19T12:38:43.216Z,30.02
2022-12-19T12:41:44.254Z,19.85
2022-12-19T12:44:14.386Z,22.27
2022-12-19T12:46:47.402Z,43.00
2022-12-19T12:49:30.001Z,33.38
2022-12-19T12:52:02.556Z,35.00
2022-12-19T12:54:36.528Z,29.95
2022-12-19T12:57:05.162Z,36.05
2022-12-19T12:59:33.481Z,30.83
2022-12-19T13:02:08.562Z,35.42
2022-12-19T13:04:45.227Z,34.35
2022-12-19T13:07:35.987Z,35.58
2022-12-19T13:10:17.568Z,32.90
2022-12-19T13:13:05.141Z,32.95
2022-12-19T13:15:45.993Z,34.17
2022-12-19T13:18:30.099Z,34.60
2022-12-19T13:20:58.944Z,35.17
2022-12-19T13:23:47.123Z,30.95
2022-12-19T13:26:24.650Z,36.25
2022-12-19T13:28:53.011Z,33.08
2022-12-19T13:31:23.519Z,33.65
2022-12-19T13:34:19.408Z,33.70
2022-12-19T13:40:00.221Z,36.22
2022-12-19T13:40:08.934Z,36.53
2022-12-19T13:43:10.031Z,36.90
2022-12-19T13:45:42.562Z,35.60
2022-12-19T13:48:17.756Z,34.22
2022-12-19T13:50:49.788Z,37.40
2022-12-19T13:53:19.432Z,38.47
2022-12-19T13:55:49.800Z,34.28
2022-12-19T13:58:29.258Z,34.08
2022-12-19T14:01:02.311Z,38.03
2022-12-19T14:03:38.611Z,31.10
2022-12-19T14:06:16.720Z,34.13
2022-12-19T14:08:48.253Z,33.10
2022-12-19T14:13:41.484Z,35.92
2022-12-19T14:14:58.047Z,31.67
2022-12-19T14:17:38.732Z,29.48
2022-12-19T14:22:08.687Z,27.75
2022-12-19T14:23:12.099Z,22.92
2022-12-19T14:28:17.070Z,30.33
2022-12-19T14:28:42.056Z,30.98
2022-12-19T14:31:15.732Z,23.98
2022-12-19T14:34:11.107Z,28.00
2022-12-19T14:36:37.889Z,27.10
2022-12-19T14:39:23.899Z,28.92
2022-12-19T14:42:13.297Z,27.58
2022-12-19T14:52:08.398Z,26.17
2022-12-19T14:54:14.692Z,29.70
2022-12-19T14:54:23.671Z,25.92
2022-12-19T14:54:39.879Z,27.30
2022-12-19T14:59:03.162Z,26.00
2022-12-19T15:01:35.152Z,26.35
2022-12-19T15:04:50.455Z,25.30
2022-12-19T15:07:08.624Z,27.85
2022-12-19T15:11:07.603Z,25.25
2022-12-19T15:14:54.202Z,28.45
2022-12-19T15:15:56.618Z,26.90
2022-12-19T15:18:37.703Z,25.75
2022-12-19T15:21:08.200Z,23.90
2022-12-19T15:23:36.765Z,24.60
2022-12-19T15:26:07.952Z,23.95
2022-12-19T15:31:26.934Z,31.23
2022-12-19T15:36:45.317Z,36.90
2022-12-19T15:39:15.384Z,35.95
2022-12-19T15:41:44.321Z,37.20
2022-12-19T15:44:18.746Z,37.03
2022-12-19T15:46:49.348Z,30.02
2022-12-19T15:49:20.837Z,40.55
2022-12-19T15:51:49.831Z,38.22
2022-12-19T15:57:07.397Z,39.55
2022-12-19T15:59:46.650Z,32.85
2022-12-19T16:02:18.754Z,35.05
2022-12-19T16:04:51.215Z,32.63
2022-12-19T16:07:22.065Z,27.20
2022-12-19T16:09:51.032Z,27.30
2022-12-19T16:12:22.641Z,28.75
2022-12-19T16:14:57.215Z,27.27
2022-12-19T16:17:27.172Z,19.50
2022-12-19T16:19:56.813Z,27.77
2022-12-19T16:22:27.486Z,30.08
2022-12-19T16:24:56.080Z,18.13
2022-12-19T16:27:28.010Z,24.25
2022-12-19T16:29:57.257Z,24.80
2022-12-19T16:32:25.798Z,23.33
2022-12-19T16:34:54.982Z,20.63
2022-12-19T16:37:31.754Z,21.70
2022-12-19T16:40:02.072Z,13.13
2022-12-19T16:42:31.385Z,14.48
2022-12-19T16:44:59.582Z,16.87
2022-12-19T16:47:27.965Z,18.80
2022-12-19T16:49:56.282Z,26.17
2022-12-19T16:52:25.900Z,21.42
2022-12-19T16:54:54.084Z,25.27
2022-12-19T16:57:23.492Z,32.42
2022-12-19T16:59:52.288Z,15.52
2022-12-19T17:02:40.496Z,24.70
2022-12-19T17:05:15.278Z,13.73
2022-12-19T17:07:44.868Z,17.00
2022-12-19T17:10:13.531Z,16.27
2022-12-19T17:12:44.191Z,27.92
2022-12-19T17:15:22.606Z,21.77
2022-12-19T17:17:51.468Z,30.45
2022-12-19T17:20:22.029Z,26.08
2022-12-19T17:22:51.939Z,26.23
2022-12-19T17:25:24.036Z,25.35
2022-12-19T17:27:53.575Z,19.60
2022-12-19T17:30:22.737Z,25.17
2022-12-19T17:32:54.490Z,23.40
2022-12-19T17:37:59.174Z,22.08
2022-12-19T17:40:29.462Z,20.05
2022-12-19T17:42:58.663Z,20.05
2022-12-19T17:45:29.044Z,21.42
2022-12-19T17:48:02.873Z,18.70
2022-12-19T17:50:34.265Z,18.92
2022-12-19T17:53:03.892Z,20.65
2022-12-19T17:55:33.490Z,15.15
2022-12-19T17:58:01.694Z,13.70
2022-12-19T18:00:32.312Z,14.13
2022-12-19T18:03:04.981Z,16.17
2022-12-19T18:05:36.253Z,20.00
2022-12-19T18:08:16.392Z,15.48
2022-12-19T18:10:45.301Z,19.07
2022-12-19T18:13:13.591Z,19.50
2022-12-19T18:15:42.916Z,17.67
2022-12-19T18:18:14.730Z,12.97
2022-12-19T18:20:44.511Z,17.70
2022-12-19T18:23:19.003Z,17.63
2022-12-19T18:25:48.151Z,15.20
2022-12-19T18:28:17.200Z,17.07
2022-12-19T18:30:47.120Z,13.43
2022-12-19T18:33:18.171Z,9.03
2022-12-19T18:35:48.651Z,10.13
2022-12-19T18:38:20.597Z,10.27
2022-12-19T18:40:49.787Z,7.20
2022-12-19T18:43:19.249Z,9.55
2022-12-19T18:45:49.393Z,10.68
2022-12-19T18:48:23.303Z,11.55
2022-12-19T18:50:51.678Z,11.63
2022-12-19T18:53:23.308Z,9.77
2022-12-19T18:55:53.039Z,7.57
2022-12-19T18:58:21.598Z,9.63
2022-12-19T19:00:53.056Z,11.02
2022-12-19T19:03:29.439Z,8.40
2022-12-19T19:05:57.887Z,6.85
2022-12-19T19:08:30.066Z,8.05
2022-12-19T19:10:59.085Z,7.00
2022-12-19T19:13:28.670Z,7.10
2022-12-19T19:15:59.989Z,7.32
2022-12-19T19:18:34.458Z,5.30
2022-12-19T19:21:03.959Z,9.48
2022-12-19T19:23:37.507Z,8.43
2022-12-19T19:26:06.957Z,6.93
2022-12-19T19:28:37.285Z,7.32
2022-12-19T19:31:09.200Z,6.40
2022-12-19T19:33:41.217Z,4.07
2022-12-19T19:36:12.704Z,6.03
2022-12-19T19:38:44.544Z,5.43
2022-12-19T19:43:41.388Z,7.82
2022-12-19T19:46:09.713Z,4.57
2022-12-19T19:48:38.049Z,4.18
2022-12-19T19:51:06.598Z,5.45
2022-12-19T19:53:36.145Z,4.18
2022-12-19T19:56:06.213Z,4.45
2022-12-19T19:58:34.416Z,4.97
2022-12-19T20:01:08.647Z,4.47
2022-12-19T20:03:37.129Z,5.68
2022-12-19T20:06:05.708Z,5.68
2022-12-19T20:08:39.657Z,5.15
2022-12-19T20:11:11.272Z,6.85
2022-12-19T20:13:40.013Z,3.75
2022-12-19T20:16:10.392Z,4.55
2022-12-19T20:18:39.930Z,5.55
2022-12-19T20:21:13.251Z,4.35
2022-12-19T20:23:44.094Z,3.95
2022-12-19T20:26:17.504Z,6.68
2022-12-19T20:28:49.441Z,4.65
2022-12-19T20:31:19.827Z,3.78
2022-12-19T20:33:50.559Z,6.32
2022-12-19T20:36:19.063Z,5.30
2022-12-19T20:38:48.356Z,5.22
2022-12-19T20:41:18.368Z,4.93
2022-12-19T20:43:48.065Z,5.75
2022-12-19T20:46:19.083Z,5.60
2022-12-19T20:48:48.358Z,4.75
2022-12-19T20:51:17.784Z,6.30
2022-12-19T20:53:46.484Z,10.40
2022-12-19T20:56:18.864Z,10.07
2022-12-19T20:58:47.539Z,9.57
2022-12-19T21:01:17.799Z,11.65
2022-12-19T21:03:48.676Z,7.45
2022-12-19T21:06:18.796Z,8.60
2022-12-19T21:08:47.530Z,6.40
2022-12-19T21:11:16.793Z,5.28
2022-12-19T21:13:46.480Z,5.82
2022-12-19T21:16:18.443Z,9.30
2022-12-19T21:18:48.273Z,10.57
2022-12-19T21:21:19.362Z,12.40
2022-12-19T21:23:48.543Z,11.68
2022-12-19T21:26:16.984Z,16.27
2022-12-19T21:28:46.654Z,12.07
2022-12-19T21:31:17.361Z,6.50
2022-12-19T21:33:46.844Z,4.60
2022-12-19T21:36:19.049Z,4.75
2022-12-19T21:38:48.269Z,4.35
2022-12-19T21:41:18.996Z,5.75
2022-12-19T21:43:51.710Z,5.10
2022-12-19T21:46:21.397Z,4.18
2022-12-19T21:48:51.604Z,6.22
2022-12-19T21:51:21.894Z,3.75
2022-12-19T21:53:54.154Z,5.30
2022-12-19T21:56:25.550Z,4.22
2022-12-19T21:58:57.143Z,4.70
2022-12-19T22:01:26.150Z,6.40
2022-12-19T22:03:59.244Z,5.15
2022-12-19T22:06:31.301Z,4.53
2022-12-19T22:09:00.288Z,4.13
2022-12-19T22:11:30.503Z,5.38
2022-12-19T22:14:02.129Z,3.70
2022-12-19T22:16:31.098Z,4.18
2022-12-19T22:18:59.449Z,4.47
2022-12-19T22:21:28.376Z,4.35
2022-12-19T22:23:58.850Z,4.55
2022-12-19T22:26:28.715Z,3.95
2022-12-19T22:28:58.097Z,4.75
2022-12-19T22:31:29.465Z,4.78
2022-12-19T22:33:59.701Z,6.78
2022-12-19T22:36:29.573Z,6.70
2022-12-19T22:38:58.718Z,4.93
2022-12-19T22:41:28.059Z,5.03
2022-12-19T22:43:57.433Z,6.70
2022-12-19T22:46:29.819Z,4.05
2022-12-19T22:48:59.870Z,4.22
2022-12-19T22:51:29.617Z,4.40
2022-12-19T22:53:58.618Z,6.32
2022-12-19T22:56:29.263Z,5.30
2022-12-19T22:59:00.449Z,6.40
2022-12-19T23:01:32.037Z,7.03
2022-12-19T23:06:31.128Z,8.20
2022-12-19T23:08:59.587Z,9.30
2022-12-19T23:11:30.896Z,9.70
2022-12-19T23:13:59.446Z,10.20
2022-12-19T23:16:29.158Z,10.90
2022-12-19T23:18:57.547Z,9.15
2022-12-19T23:21:26.897Z,7.07
2022-12-19T23:23:56.441Z,6.85
2022-12-19T23:26:26.467Z,6.25
2022-12-19T23:28:56.936Z,5.50
2022-12-19T23:31:25.802Z,6.43
2022-12-19T23:33:56.101Z,6.05
2022-12-19T23:37:00.513Z,4.35
2022-12-19T23:39:14.241Z,4.68
2022-12-19T23:41:42.490Z,6.57
2022-12-19T23:44:13.558Z,5.45
2022-12-19T23:46:42.011Z,7.00
2022-12-19T23:49:11.707Z,6.22
2022-12-19T23:51:42.180Z,6.18
2022-12-19T23:54:10.383Z,6.57
2022-12-19T23:56:39.368Z,6.15
2022-12-19T23:59:07.818Z,7.93
